createdAt,value
2023-07-23T00:00:07.149Z,1003.81
2023-07-23T00:01:07.157Z,1003.85
2023-07-23T00:02:07.102Z,1003.84
2023-07-23T00:03:07.091Z,1003.80
2023-07-23T00:04:07.119Z,1003.88
2023-07-23T00:05:07.089Z,1003.84
2023-07-23T00:06:07.071Z,1003.81
2023-07-23T00:07:07.055Z,1003.78
2023-07-23T00:08:07.028Z,1003.79
2023-07-23T00:09:07.020Z,1003.74
2023-07-23T00:10:07.042Z,1003.75
2023-07-23T00:11:07.015Z,1003.77
2023-07-23T00:12:06.990Z,1003.74
2023-07-23T00:13:06.985Z,1003.75
2023-07-23T00:14:06.969Z,1003.74
2023-07-23T00:15:06.956Z,1003.72
2023-07-23T00:16:06.990Z,1003.69
2023-07-23T00:17:06.932Z,1003.72
2023-07-23T00:18:06.926Z,1003.64
2023-07-23T00:19:06.912Z,1003.63
2023-07-23T00:20:06.906Z,1003.65
2023-07-23T00:21:06.915Z,1003.65
2023-07-23T00:22:06.887Z,1003.62
2023-07-23T00:23:06.875Z,1003.64
2023-07-23T00:24:06.868Z,1003.63
2023-07-23T00:25:06.851Z,1003.56
2023-07-23T00:26:06.840Z,1003.57
2023-07-23T00:27:06.870Z,1003.57
2023-07-23T00:28:06.822Z,1003.57
2023-07-23T00:29:06.796Z,1003.59
2023-07-23T00:30:06.794Z,1003.53
2023-07-23T00:31:06.790Z,1003.53
2023-07-23T00:32:06.769Z,1003.54
2023-07-23T00:33:06.804Z,1003.56
2023-07-23T00:34:06.746Z,1003.53
2023-07-23T00:35:06.730Z,1003.54
2023-07-23T00:36:06.726Z,1003.56
2023-07-23T00:37:06.713Z,1003.51
2023-07-23T00:38:06.728Z,1003.52
2023-07-23T00:39:06.910Z,1003.49
2023-07-23T00:40:06.699Z,1003.45
2023-07-23T00:41:06.677Z,1003.46
2023-07-23T00:42:06.661Z,1003.44
2023-07-23T00:43:06.647Z,1003.44
2023-07-23T00:44:06.631Z,1003.44
2023-07-23T00:45:06.640Z,1003.41
2023-07-23T00:46:06.673Z,1003.43
2023-07-23T00:47:06.596Z,1003.41
2023-07-23T00:48:06.633Z,1003.36
2023-07-23T00:49:06.598Z,1003.36
2023-07-23T00:50:06.593Z,1003.30
2023-07-23T00:51:06.552Z,1003.32
2023-07-23T00:52:06.625Z,1003.30
2023-07-23T00:53:06.534Z,1003.24
2023-07-23T00:54:06.548Z,1003.27
2023-07-23T00:55:06.535Z,1003.22
2023-07-23T00:56:06.506Z,1003.24
2023-07-23T00:57:06.486Z,1003.20
2023-07-23T00:58:06.471Z,1003.19
2023-07-23T00:59:06.461Z,1003.17
2023-07-23T01:00:06.471Z,1003.08
2023-07-23T01:01:06.458Z,1003.10
2023-07-23T01:02:06.442Z,1003.11
2023-07-23T01:03:06.455Z,1003.05
2023-07-23T01:04:06.423Z,1003.06
2023-07-23T01:05:06.417Z,1003.01
2023-07-23T01:06:06.391Z,1003.04
2023-07-23T01:07:06.375Z,1003.02
2023-07-23T01:08:06.385Z,1003.02
2023-07-23T01:09:06.346Z,1002.99
2023-07-23T01:10:06.430Z,1002.92
2023-07-23T01:11:06.347Z,1002.93
2023-07-23T01:12:06.320Z,1002.93
2023-07-23T01:13:06.304Z,1002.88
2023-07-23T01:14:06.296Z,1002.90
2023-07-23T01:15:06.297Z,1002.85
2023-07-23T01:16:06.311Z,1002.83
2023-07-23T01:17:06.280Z,1002.81
2023-07-23T01:18:06.357Z,1002.80
2023-07-23T01:19:06.290Z,1002.76
2023-07-23T01:20:06.426Z,1002.75
2023-07-23T01:21:06.230Z,1002.74
2023-07-23T01:22:06.237Z,1002.70
2023-07-23T01:23:06.197Z,1002.70
2023-07-23T01:24:06.191Z,1002.67
2023-07-23T01:25:06.291Z,1002.67
2023-07-23T01:26:06.169Z,1002.64
2023-07-23T01:27:06.147Z,1002.64
2023-07-23T01:28:06.151Z,1002.62
2023-07-23T01:29:06.127Z,1002.63
2023-07-23T01:30:06.222Z,1002.61
2023-07-23T01:31:06.177Z,1002.64
2023-07-23T01:32:06.135Z,1002.61
2023-07-23T01:33:06.094Z,1002.60
2023-07-23T01:34:06.099Z,1002.62
2023-07-23T01:35:06.065Z,1002.59
2023-07-23T01:36:06.052Z,1002.52
2023-07-23T01:37:06.069Z,1002.52
2023-07-23T01:38:06.027Z,1002.53
2023-07-23T01:39:06.015Z,1002.51
2023-07-23T01:40:06.028Z,1002.48
2023-07-23T01:41:06.001Z,1002.48
2023-07-23T01:42:05.984Z,1002.44
2023-07-23T01:43:06.007Z,1002.43
2023-07-23T01:44:05.957Z,1002.38
2023-07-23T01:45:05.971Z,1002.38
2023-07-23T01:46:05.940Z,1002.38
2023-07-23T01:47:05.929Z,1002.36
2023-07-23T01:48:05.956Z,1002.35
2023-07-23T01:49:06.396Z,1002.38
2023-07-23T01:50:05.908Z,1002.39
2023-07-23T01:51:05.889Z,1002.41
2023-07-23T01:52:05.872Z,1002.38
2023-07-23T01:53:05.900Z,1002.36
2023-07-23T01:54:05.854Z,1002.33
2023-07-23T01:55:05.841Z,1002.32
2023-07-23T01:56:05.823Z,1002.38
2023-07-23T01:57:05.810Z,1002.34
2023-07-23T01:58:05.845Z,1002.31
2023-07-23T01:59:05.875Z,1002.32
2023-07-23T02:00:05.782Z,1002.26
2023-07-23T02:01:05.988Z,1002.29
2023-07-23T02:02:05.799Z,1002.25
2023-07-23T02:03:05.812Z,1002.21
2023-07-23T02:04:05.768Z,1002.17
2023-07-23T02:05:05.756Z,1002.16
2023-07-23T02:06:05.744Z,1002.17
2023-07-23T02:07:05.706Z,1002.10
2023-07-23T02:08:05.722Z,1002.06
2023-07-23T02:09:05.682Z,1002.07
2023-07-23T02:10:05.673Z,1002.06
2023-07-23T02:11:05.657Z,1002.02
2023-07-23T02:12:05.647Z,1002.04
2023-07-23T02:13:05.657Z,1002.01
2023-07-23T02:14:05.630Z,1002.03
2023-07-23T02:15:05.621Z,1002.00
2023-07-23T02:16:05.635Z,1001.97
2023-07-23T02:17:05.610Z,1001.96
2023-07-23T02:18:05.646Z,1001.97
2023-07-23T02:19:05.570Z,1001.92
2023-07-23T02:20:05.565Z,1001.96
2023-07-23T02:21:05.546Z,1001.89
2023-07-23T02:22:05.545Z,1001.96
2023-07-23T02:23:05.545Z,1001.93
2023-07-23T02:24:05.527Z,1001.90
2023-07-23T02:25:05.512Z,1001.87
2023-07-23T02:26:05.500Z,1001.87
2023-07-23T02:27:05.501Z,1001.85
2023-07-23T02:28:05.510Z,1001.82
2023-07-23T02:29:05.454Z,1001.80
2023-07-23T02:30:05.459Z,1001.79
2023-07-23T02:31:05.458Z,1001.80
2023-07-23T02:32:05.446Z,1001.79
2023-07-23T02:33:05.456Z,1001.78
2023-07-23T02:34:05.445Z,1001.80
2023-07-23T02:35:05.394Z,1001.75
2023-07-23T02:36:05.387Z,1001.75
2023-07-23T02:37:05.368Z,1001.72
2023-07-23T02:38:05.358Z,1001.67
2023-07-23T02:39:05.382Z,1001.65
2023-07-23T02:40:05.365Z,1001.67
2023-07-23T02:41:05.320Z,1001.64
2023-07-23T02:42:05.320Z,1001.61
2023-07-23T02:43:05.315Z,1001.66
2023-07-23T02:44:05.344Z,1001.60
2023-07-23T02:45:05.344Z,1001.60
2023-07-23T02:46:05.286Z,1001.59
2023-07-23T02:47:05.265Z,1001.57
2023-07-23T02:48:05.261Z,1001.54
2023-07-23T02:49:05.238Z,1001.56
2023-07-23T02:50:05.288Z,1001.51
2023-07-23T02:51:05.215Z,1001.57
2023-07-23T02:52:05.208Z,1001.53
2023-07-23T02:53:05.192Z,1001.51
2023-07-23T02:54:05.195Z,1001.54
2023-07-23T02:55:05.168Z,1001.48
2023-07-23T02:56:05.191Z,1001.54
2023-07-23T02:57:05.197Z,1001.50
2023-07-23T02:58:05.168Z,1001.48
2023-07-23T02:59:05.120Z,1001.47
2023-07-23T03:00:05.112Z,1001.44
2023-07-23T03:01:05.124Z,1001.38
2023-07-23T03:02:05.184Z,1001.43
2023-07-23T03:03:05.094Z,1001.44
2023-07-23T03:04:05.081Z,1001.41
2023-07-23T03:05:05.050Z,1001.36
2023-07-23T03:06:05.051Z,1001.37
2023-07-23T03:07:05.048Z,1001.36
2023-07-23T03:08:05.065Z,1001.34
2023-07-23T03:09:05.013Z,1001.31
2023-07-23T03:10:05.061Z,1001.27
2023-07-23T03:11:04.992Z,1001.29
2023-07-23T03:12:04.980Z,1001.27
2023-07-23T03:13:11.679Z,1001.22
2023-07-23T03:14:04.982Z,1001.25
2023-07-23T03:15:04.939Z,1001.27
2023-07-23T03:16:04.968Z,1001.21
2023-07-23T03:17:04.920Z,1001.20
2023-07-23T03:18:04.914Z,1001.20
2023-07-23T03:19:04.927Z,1001.19
2023-07-23T03:20:04.898Z,1001.19
2023-07-23T03:21:04.879Z,1001.18
2023-07-23T03:22:04.874Z,1001.17
2023-07-23T03:23:04.848Z,1001.18
2023-07-23T03:24:04.854Z,1001.12
2023-07-23T03:25:04.862Z,1001.13
2023-07-23T03:26:04.833Z,1001.15
2023-07-23T03:27:04.815Z,1001.05
2023-07-23T03:28:04.810Z,1001.10
2023-07-23T03:29:04.841Z,1001.07
2023-07-23T03:30:04.798Z,1001.09
2023-07-23T03:31:04.772Z,1001.07
2023-07-23T03:32:04.822Z,1001.01
2023-07-23T03:33:04.778Z,1000.99
2023-07-23T03:34:04.736Z,1001.00
2023-07-23T03:35:04.756Z,1000.98
2023-07-23T03:36:04.750Z,1000.96
2023-07-23T03:37:04.705Z,1000.97
2023-07-23T03:38:04.689Z,1000.99
2023-07-23T03:39:04.675Z,1000.94
2023-07-23T03:40:04.667Z,1000.95
2023-07-23T03:41:04.685Z,1000.92
2023-07-23T03:42:04.643Z,1000.94
2023-07-23T03:43:04.675Z,1000.87
2023-07-23T03:44:04.635Z,1000.89
2023-07-23T03:45:04.637Z,1000.86
2023-07-23T03:46:04.688Z,1000.85
2023-07-23T03:47:04.590Z,1000.83
2023-07-23T03:48:04.631Z,1000.85
2023-07-23T03:49:04.571Z,1000.83
2023-07-23T03:50:04.581Z,1000.82
2023-07-23T03:51:04.561Z,1000.85
2023-07-23T03:52:04.530Z,1000.81
2023-07-23T03:53:04.517Z,1000.76
2023-07-23T03:54:04.527Z,1000.83
2023-07-23T03:55:04.500Z,1000.78
2023-07-23T03:56:04.509Z,1000.79
2023-07-23T03:57:04.479Z,1000.78
2023-07-23T03:58:04.463Z,1000.78
2023-07-23T03:59:04.460Z,1000.79
2023-07-23T04:00:04.438Z,1000.77
2023-07-23T04:01:04.476Z,1000.77
2023-07-23T04:02:04.446Z,1000.76
2023-07-23T04:03:04.442Z,1000.80
2023-07-23T04:04:04.444Z,1000.77
2023-07-23T04:05:04.393Z,1000.77
2023-07-23T04:06:04.397Z,1000.76
2023-07-23T04:07:04.363Z,1000.78
2023-07-23T04:08:04.355Z,1000.71
2023-07-23T04:09:04.341Z,1000.62
2023-07-23T04:10:04.337Z,1000.63
2023-07-23T04:11:04.333Z,1000.64
2023-07-23T04:12:04.338Z,1000.65
2023-07-23T04:13:04.296Z,1000.66
2023-07-23T04:14:04.282Z,1000.68
2023-07-23T04:15:04.278Z,1000.64
2023-07-23T04:16:04.299Z,1000.66
2023-07-23T04:17:04.251Z,1000.68
2023-07-23T04:18:04.262Z,1000.65
2023-07-23T04:19:04.236Z,1000.66
2023-07-23T04:20:04.220Z,1000.61
2023-07-23T04:21:04.210Z,1000.65
2023-07-23T04:22:04.215Z,1000.66
2023-07-23T04:23:04.212Z,1000.60
2023-07-23T04:24:04.181Z,1000.63
2023-07-23T04:25:04.165Z,1000.60
2023-07-23T04:26:04.156Z,1000.59
2023-07-23T04:27:04.142Z,1000.59
2023-07-23T04:28:04.149Z,1000.58
2023-07-23T04:29:04.126Z,1000.59
2023-07-23T04:30:04.109Z,1000.54
2023-07-23T04:31:04.115Z,1000.51
2023-07-23T04:32:04.092Z,1000.56
2023-07-23T04:33:04.128Z,1000.55
2023-07-23T04:34:04.060Z,1000.56
2023-07-23T04:35:04.052Z,1000.52
2023-07-23T04:36:04.062Z,1000.51
2023-07-23T04:37:04.046Z,1000.51
2023-07-23T04:38:04.040Z,1000.54
2023-07-23T04:39:04.006Z,1000.49
2023-07-23T04:40:04.009Z,1000.54
2023-07-23T04:41:03.983Z,1000.52
2023-07-23T04:42:03.973Z,1000.52
2023-07-23T04:43:03.962Z,1000.51
2023-07-23T04:44:03.974Z,1000.51
2023-07-23T04:45:03.940Z,1000.52
2023-07-23T04:46:03.996Z,1000.50
2023-07-23T04:47:03.918Z,1000.49
2023-07-23T04:48:03.922Z,1000.48
2023-07-23T04:49:03.906Z,1000.47
2023-07-23T04:50:03.885Z,1000.48
2023-07-23T04:51:03.874Z,1000.47
2023-07-23T04:52:03.880Z,1000.44
2023-07-23T04:53:03.868Z,1000.42
2023-07-23T04:54:03.843Z,1000.41
2023-07-23T04:55:03.863Z,1000.42
2023-07-23T04:56:03.831Z,1000.41
2023-07-23T04:57:03.820Z,1000.38
2023-07-23T04:58:03.823Z,1000.35
2023-07-23T04:59:03.780Z,1000.38
2023-07-23T05:00:03.765Z,1000.37
2023-07-23T05:01:03.854Z,1000.35
2023-07-23T05:02:03.743Z,1000.34
2023-07-23T05:03:03.775Z,1000.34
2023-07-23T05:04:03.743Z,1000.29
2023-07-23T05:05:03.737Z,1000.28
2023-07-23T05:06:03.712Z,1000.30
2023-07-23T05:07:03.697Z,1000.31
2023-07-23T05:08:03.681Z,1000.27
2023-07-23T05:09:03.687Z,1000.29
2023-07-23T05:10:03.659Z,1000.26
2023-07-23T05:11:03.679Z,1000.29
2023-07-23T05:12:03.632Z,1000.26
2023-07-23T05:13:03.626Z,1000.23
2023-07-23T05:14:03.611Z,1000.22
2023-07-23T05:15:03.622Z,1000.24
2023-07-23T05:16:03.640Z,1000.23
2023-07-23T05:17:06.054Z,1000.25
2023-07-23T05:18:03.564Z,1000.23
2023-07-23T05:19:03.566Z,1000.23
2023-07-23T05:20:03.546Z,1000.24
2023-07-23T05:21:03.539Z,1000.26
2023-07-23T05:22:03.604Z,1000.23
2023-07-23T05:23:03.524Z,1000.22
2023-07-23T05:24:03.503Z,1000.22
2023-07-23T05:25:03.493Z,1000.21
2023-07-23T05:26:03.489Z,1000.19
2023-07-23T05:27:03.491Z,1000.19
2023-07-23T05:28:03.490Z,1000.17
2023-07-23T05:29:03.453Z,1000.15
2023-07-23T05:30:03.432Z,1000.21
2023-07-23T05:31:03.464Z,1000.17
2023-07-23T05:32:03.411Z,1000.17
2023-07-23T05:33:04.253Z,1000.12
2023-07-23T05:34:03.396Z,1000.13
2023-07-23T05:35:03.389Z,1000.14
2023-07-23T05:36:03.372Z,1000.10
2023-07-23T05:37:10.224Z,1000.14
2023-07-23T05:38:03.373Z,1000.09
2023-07-23T05:39:03.339Z,1000.08
2023-07-23T05:40:03.322Z,1000.11
2023-07-23T05:41:03.306Z,1000.11
2023-07-23T05:42:03.296Z,1000.03
2023-07-23T05:43:03.312Z,1000.03
2023-07-23T05:44:03.315Z,1000.02
2023-07-23T05:45:03.270Z,1000.00
2023-07-23T05:46:03.254Z,1000.07
2023-07-23T05:47:03.304Z,1000.05
2023-07-23T05:48:03.271Z,1000.00
2023-07-23T05:49:03.245Z,1000.01
2023-07-23T05:50:03.207Z,1000.00
2023-07-23T05:51:03.203Z,999.98
2023-07-23T05:52:03.196Z,1000.02
2023-07-23T05:53:03.196Z,1000.00
2023-07-23T05:54:03.189Z,1000.02
2023-07-23T05:55:03.152Z,1000.00
2023-07-23T05:56:03.149Z,1000.00
2023-07-23T05:57:03.155Z,1000.03
2023-07-23T05:58:03.117Z,1000.01
2023-07-23T05:59:03.134Z,999.98
2023-07-23T06:00:03.126Z,1000.04
2023-07-23T06:01:03.137Z,1000.04
2023-07-23T06:02:03.095Z,1000.03
2023-07-23T06:03:03.139Z,1000.03
2023-07-23T06:04:03.102Z,1000.04
2023-07-23T06:05:03.889Z,1000.00
2023-07-23T06:06:03.030Z,1000.02
2023-07-23T06:07:03.023Z,1000.04
2023-07-23T06:08:03.024Z,1000.02
2023-07-23T06:09:03.007Z,1000.08
2023-07-23T06:10:02.988Z,1000.06
2023-07-23T06:11:03.006Z,1000.05
2023-07-23T06:12:02.985Z,1000.01
2023-07-23T06:13:02.966Z,999.99
2023-07-23T06:14:02.989Z,999.99
2023-07-23T06:15:03.063Z,1000.01
2023-07-23T06:16:02.915Z,999.96
2023-07-23T06:17:02.959Z,1000.01
2023-07-23T06:18:02.923Z,1000.01
2023-07-23T06:19:02.889Z,1000.04
2023-07-23T06:20:02.876Z,1000.00
2023-07-23T06:21:02.885Z,1000.01
2023-07-23T06:22:02.870Z,1000.00
2023-07-23T06:23:02.840Z,1000.03
2023-07-23T06:24:02.829Z,1000.00
2023-07-23T06:25:02.847Z,1000.04
2023-07-23T06:26:02.804Z,1000.08
2023-07-23T06:27:02.830Z,1000.05
2023-07-23T06:28:02.783Z,1000.02
2023-07-23T06:29:02.806Z,1000.07
2023-07-23T06:30:02.787Z,1000.02
2023-07-23T06:31:02.772Z,1000.00
2023-07-23T06:32:02.752Z,1000.01
2023-07-23T06:33:02.772Z,1000.04
2023-07-23T06:34:02.721Z,1000.02
2023-07-23T06:35:05.868Z,1000.04
2023-07-23T06:36:02.705Z,1000.06
2023-07-23T06:37:02.696Z,1000.04
2023-07-23T06:38:02.673Z,1000.00
2023-07-23T06:39:02.694Z,1000.00
2023-07-23T06:40:02.658Z,1000.01
2023-07-23T06:41:02.648Z,1000.03
2023-07-23T06:42:02.636Z,1000.02
2023-07-23T06:43:02.623Z,1000.02
2023-07-23T06:44:02.637Z,999.96
2023-07-23T06:45:02.609Z,1000.00
2023-07-23T06:46:02.597Z,999.97
2023-07-23T06:47:02.573Z,1000.00
2023-07-23T06:48:02.590Z,999.99
2023-07-23T06:49:02.600Z,999.97
2023-07-23T06:50:02.539Z,1000.02
2023-07-23T06:51:02.539Z,1000.01
2023-07-23T06:52:02.536Z,1000.03
2023-07-23T06:53:02.617Z,999.98
2023-07-23T06:54:02.496Z,999.99
2023-07-23T06:55:02.515Z,999.98
2023-07-23T06:56:02.544Z,1000.04
2023-07-23T06:57:02.470Z,999.97
2023-07-23T06:58:02.450Z,999.99
2023-07-23T06:59:02.487Z,999.99
2023-07-23T07:00:02.442Z,999.93
2023-07-23T07:01:02.420Z,999.95
2023-07-23T07:02:02.435Z,999.97
2023-07-23T07:03:02.473Z,999.98
2023-07-23T07:04:02.392Z,999.97
2023-07-23T07:05:02.404Z,999.97
2023-07-23T07:06:02.445Z,1000.01
2023-07-23T07:07:02.384Z,999.98
2023-07-23T07:08:02.346Z,999.91
2023-07-23T07:09:02.350Z,999.97
2023-07-23T07:10:02.320Z,999.97
2023-07-23T07:11:02.328Z,999.98
2023-07-23T07:12:02.301Z,999.95
2023-07-23T07:13:02.285Z,999.98
2023-07-23T07:14:02.270Z,999.93
2023-07-23T07:15:02.283Z,999.96
2023-07-23T07:16:02.263Z,999.94
2023-07-23T07:17:04.088Z,999.95
2023-07-23T07:18:02.226Z,999.98
2023-07-23T07:19:02.245Z,999.90
2023-07-23T07:20:02.213Z,999.87
2023-07-23T07:21:02.214Z,999.87
2023-07-23T07:22:02.185Z,999.89
2023-07-23T07:23:02.178Z,999.88
2023-07-23T07:24:02.174Z,999.90
2023-07-23T07:25:02.168Z,999.83
2023-07-23T07:26:02.333Z,999.86
2023-07-23T07:27:02.130Z,999.89
2023-07-23T07:28:02.125Z,999.86
2023-07-23T07:29:02.109Z,999.86
2023-07-23T07:30:02.102Z,999.94
2023-07-23T07:31:02.160Z,999.80
2023-07-23T07:32:02.120Z,999.80
2023-07-23T07:33:02.097Z,999.81
2023-07-23T07:34:02.051Z,999.80
2023-07-23T07:35:02.039Z,999.81
2023-07-23T07:36:02.064Z,999.85
2023-07-23T07:37:02.026Z,999.83
2023-07-23T07:38:02.006Z,999.76
2023-07-23T07:39:02.009Z,999.85
2023-07-23T07:40:01.988Z,999.81
2023-07-23T07:41:01.986Z,999.79
2023-07-23T07:42:01.984Z,999.75
2023-07-23T07:43:01.964Z,999.76
2023-07-23T07:44:01.976Z,999.79
2023-07-23T07:45:01.942Z,999.79
2023-07-23T07:46:02.411Z,999.85
2023-07-23T07:47:01.914Z,999.77
2023-07-23T07:48:01.939Z,999.83
2023-07-23T07:49:01.884Z,999.74
2023-07-23T07:50:01.937Z,999.74
2023-07-23T07:51:01.886Z,999.72
2023-07-23T07:52:01.858Z,999.73
2023-07-23T07:53:01.853Z,999.74
2023-07-23T07:54:01.825Z,999.81
2023-07-23T07:55:01.832Z,999.77
2023-07-23T07:56:01.924Z,999.77
2023-07-23T07:57:01.803Z,999.78
2023-07-23T07:58:01.781Z,999.78
2023-07-23T07:59:04.143Z,999.74
2023-07-23T08:00:01.800Z,999.81
2023-07-23T08:01:01.787Z,999.83
2023-07-23T08:02:01.749Z,999.71
2023-07-23T08:03:01.835Z,999.69
2023-07-23T08:04:01.920Z,999.78
2023-07-23T08:05:01.962Z,999.76
2023-07-23T08:06:01.778Z,999.84
2023-07-23T08:07:01.681Z,999.78
2023-07-23T08:08:01.671Z,999.81
2023-07-23T08:09:01.665Z,999.77
2023-07-23T08:10:01.649Z,999.81
2023-07-23T08:11:01.660Z,999.80
2023-07-23T08:12:01.669Z,999.76
2023-07-23T08:13:01.620Z,999.83
2023-07-23T08:14:01.609Z,999.82
2023-07-23T08:15:01.597Z,999.81
2023-07-23T08:16:01.612Z,999.79
2023-07-23T08:17:01.597Z,999.78
2023-07-23T08:18:01.563Z,999.77
2023-07-23T08:19:01.620Z,999.75
2023-07-23T08:20:01.542Z,999.82
2023-07-23T08:21:01.574Z,999.74
2023-07-23T08:22:01.526Z,999.88
2023-07-23T08:23:01.515Z,999.81
2023-07-23T08:24:01.504Z,999.82
2023-07-23T08:25:01.512Z,999.72
2023-07-23T08:26:01.494Z,999.81
2023-07-23T08:27:01.483Z,999.83
2023-07-23T08:28:01.542Z,999.96
2023-07-23T08:29:01.491Z,999.90
2023-07-23T08:30:01.456Z,999.91
2023-07-23T08:31:01.722Z,999.96
2023-07-23T08:32:01.421Z,999.92
2023-07-23T08:33:01.486Z,999.85
2023-07-23T08:34:01.407Z,999.83
2023-07-23T08:35:01.381Z,999.89
2023-07-23T08:36:01.440Z,999.97
2023-07-23T08:37:01.355Z,999.89
2023-07-23T08:38:01.351Z,999.88
2023-07-23T08:39:01.342Z,1000.02
2023-07-23T08:40:01.336Z,999.76
2023-07-23T08:41:01.332Z,999.97
2023-07-23T08:42:01.307Z,999.96
2023-07-23T08:43:01.355Z,999.96
2023-07-23T08:44:01.300Z,1000.12
2023-07-23T08:45:01.267Z,1000.01
2023-07-23T08:46:01.394Z,1000.01
2023-07-23T08:47:01.246Z,1000.08
2023-07-23T08:48:01.250Z,1000.06
2023-07-23T08:49:01.227Z,1000.13
2023-07-23T08:50:03.164Z,1000.14
2023-07-23T08:51:01.232Z,1000.21
2023-07-23T08:52:01.206Z,1000.05
2023-07-23T08:53:01.176Z,1000.07
2023-07-23T08:54:01.172Z,1000.12
2023-07-23T08:55:01.162Z,1000.03
2023-07-23T08:56:01.160Z,1000.07
2023-07-23T08:57:01.169Z,1000.10
2023-07-23T08:58:01.143Z,1000.06
2023-07-23T08:59:01.112Z,1000.01
2023-07-23T09:00:01.110Z,1000.08
2023-07-23T09:01:01.098Z,1000.13
2023-07-23T09:02:01.085Z,1000.09
2023-07-23T09:03:01.108Z,1000.12
2023-07-23T09:04:01.067Z,1000.09
2023-07-23T09:05:01.075Z,1000.14
2023-07-23T09:06:01.036Z,1000.13
2023-07-23T09:07:01.022Z,1000.16
2023-07-23T09:08:01.016Z,1000.25
2023-07-23T09:09:01.026Z,1000.17
2023-07-23T09:10:01.015Z,1000.24
2023-07-23T09:11:00.980Z,1000.16
2023-07-23T09:12:00.971Z,1000.27
2023-07-23T09:13:00.979Z,1000.45
2023-07-23T09:14:00.951Z,1000.28
2023-07-23T09:15:00.931Z,1000.33
2023-07-23T09:16:01.359Z,1000.37
2023-07-23T09:17:01.004Z,1000.41
2023-07-23T09:18:00.927Z,1000.33
2023-07-23T09:19:00.909Z,1000.29
2023-07-23T09:20:00.902Z,1000.31
2023-07-23T09:21:00.870Z,1000.29
2023-07-23T09:22:00.855Z,1000.32
2023-07-23T09:23:00.845Z,1000.44
2023-07-23T09:24:00.860Z,1000.27
2023-07-23T09:25:00.842Z,1000.35
2023-07-23T09:26:00.816Z,1000.34
2023-07-23T09:27:00.804Z,1000.31
2023-07-23T09:28:00.798Z,1000.49
2023-07-23T09:29:00.823Z,1000.34
2023-07-23T09:30:00.797Z,1000.31
2023-07-23T09:31:00.858Z,1000.44
2023-07-23T09:32:00.752Z,1000.44
2023-07-23T09:33:00.780Z,1000.44
2023-07-23T09:34:00.753Z,1000.37
2023-07-23T09:35:00.747Z,1000.42
2023-07-23T09:36:00.711Z,1000.48
2023-07-23T09:37:00.693Z,1000.51
2023-07-23T09:38:00.684Z,1000.44
2023-07-23T09:39:00.673Z,1000.56
2023-07-23T09:40:00.684Z,1000.45
2023-07-23T09:41:00.670Z,1000.50
2023-07-23T09:42:00.634Z,1000.48
2023-07-23T09:43:00.628Z,1000.53
2023-07-23T09:44:00.662Z,1000.56
2023-07-23T09:45:00.629Z,1000.53
2023-07-23T09:46:00.597Z,1000.61
2023-07-23T09:47:00.718Z,1000.56
2023-07-23T09:48:14.089Z,1000.64
2023-07-23T09:49:00.562Z,1000.57
2023-07-23T09:50:00.565Z,1000.66
2023-07-23T09:51:00.559Z,1000.50
2023-07-23T09:52:00.533Z,1000.62
2023-07-23T09:53:00.518Z,1000.57
2023-07-23T09:54:00.504Z,1000.56
2023-07-23T09:55:00.501Z,1000.62
2023-07-23T09:56:00.496Z,1000.67
2023-07-23T09:57:02.252Z,1000.63
2023-07-23T09:58:00.457Z,1000.59
2023-07-23T09:59:00.452Z,1000.67
2023-07-23T10:00:00.437Z,1000.69
2023-07-23T10:01:00.488Z,1000.63
2023-07-23T10:02:00.440Z,1000.62
2023-07-23T10:03:01.727Z,1000.68
2023-07-23T10:04:00.396Z,1000.67
2023-07-23T10:05:00.383Z,1000.70
2023-07-23T10:06:00.395Z,1000.60
2023-07-23T10:07:00.359Z,1000.65
2023-07-23T10:08:00.351Z,1000.61
2023-07-23T10:09:00.339Z,1000.64
2023-07-23T10:10:00.330Z,1000.62
2023-07-23T10:11:00.342Z,1000.66
2023-07-23T10:12:00.305Z,1000.58
2023-07-23T10:13:00.299Z,1000.69
2023-07-23T10:14:00.283Z,1000.64
2023-07-23T10:15:00.276Z,1000.62
2023-07-23T10:16:00.285Z,1000.65
2023-07-23T10:17:00.246Z,1000.59
2023-07-23T10:18:00.391Z,1000.62
2023-07-23T10:19:00.231Z,1000.56
2023-07-23T10:20:00.212Z,1000.65
2023-07-23T10:21:00.223Z,1000.66
2023-07-23T10:22:00.210Z,1000.65
2023-07-23T10:23:00.186Z,1000.69
2023-07-23T10:24:00.172Z,1000.52
2023-07-23T10:25:00.203Z,1000.71
2023-07-23T10:26:00.154Z,1000.70
2023-07-23T10:27:00.139Z,1000.72
2023-07-23T10:28:00.132Z,1000.68
2023-07-23T10:29:00.145Z,1000.65
2023-07-23T10:30:00.132Z,1000.67
2023-07-23T10:31:00.130Z,1000.67
2023-07-23T10:32:00.134Z,1000.72
2023-07-23T10:33:00.109Z,1000.76
2023-07-23T10:34:00.066Z,1000.75
2023-07-23T10:35:00.047Z,1000.70
2023-07-23T10:36:00.170Z,1000.73
2023-07-23T10:37:00.028Z,1000.67
2023-07-23T10:38:00.036Z,1000.82
2023-07-23T10:39:00.010Z,1000.74
2023-07-23T10:40:00.001Z,1000.75
2023-07-23T10:40:59.982Z,1000.78
2023-07-23T10:41:59.973Z,1000.78
2023-07-23T10:43:00.044Z,1000.88
2023-07-23T10:43:59.953Z,1000.83
2023-07-23T10:44:59.948Z,1000.86
2023-07-23T10:45:59.960Z,1000.82
2023-07-23T10:46:59.920Z,1000.81
2023-07-23T10:47:59.989Z,1000.77
2023-07-23T10:48:59.899Z,1000.77
2023-07-23T10:49:59.886Z,1000.79
2023-07-23T10:50:59.876Z,1000.78
2023-07-23T10:51:59.866Z,1000.74
2023-07-23T10:52:59.848Z,1000.74
2023-07-23T10:53:59.864Z,1000.77
2023-07-23T10:54:59.825Z,1000.82
2023-07-23T10:55:59.826Z,1000.81
2023-07-23T10:56:59.806Z,1000.74
2023-07-23T10:57:59.820Z,1000.78
2023-07-23T10:58:59.789Z,1000.83
2023-07-23T10:59:59.793Z,1000.82
2023-07-23T11:00:59.793Z,1000.80
2023-07-23T11:01:59.784Z,1000.93
2023-07-23T11:02:59.866Z,1000.79
2023-07-23T11:03:59.979Z,1000.79
2023-07-23T11:04:59.717Z,1000.80
2023-07-23T11:05:59.720Z,1000.80
2023-07-23T11:06:59.697Z,1000.82
2023-07-23T11:07:59.697Z,1000.78
2023-07-23T11:08:59.691Z,1000.80
2023-07-23T11:09:59.666Z,1000.80
2023-07-23T11:11:01.585Z,1000.88
2023-07-23T11:11:59.644Z,1000.85
2023-07-23T11:12:59.626Z,1000.79
2023-07-23T11:13:59.620Z,1000.85
2023-07-23T11:14:59.615Z,1000.84
2023-07-23T11:15:59.691Z,1000.80
2023-07-23T11:16:59.581Z,1000.82
2023-07-23T11:18:05.873Z,1000.78
2023-07-23T11:18:59.598Z,1000.82
2023-07-23T11:19:59.555Z,1000.85
2023-07-23T11:20:59.540Z,1000.79
2023-07-23T11:21:59.576Z,1000.92
2023-07-23T11:22:59.543Z,1000.93
2023-07-23T11:23:59.506Z,1000.83
2023-07-23T11:24:59.496Z,1000.88
2023-07-23T11:25:59.497Z,1000.92
2023-07-23T11:26:59.560Z,1000.87
2023-07-23T11:27:59.489Z,1000.91
2023-07-23T11:28:59.453Z,1000.85
2023-07-23T11:29:59.446Z,1000.89
2023-07-23T11:30:59.428Z,1000.86
2023-07-23T11:31:59.463Z,1000.87
2023-07-23T11:32:59.434Z,1000.87
2023-07-23T11:33:59.419Z,1000.83
2023-07-23T11:34:59.389Z,1000.90
2023-07-23T11:35:59.373Z,1000.81
2023-07-23T11:36:59.387Z,1000.90
2023-07-23T11:37:59.351Z,1000.95
2023-07-23T11:38:59.368Z,1000.85
2023-07-23T11:39:59.351Z,1000.87
2023-07-23T11:40:59.313Z,1000.93
2023-07-23T11:41:59.341Z,1000.84
2023-07-23T11:42:59.306Z,1000.91
2023-07-23T11:43:59.313Z,1000.97
2023-07-23T11:44:59.273Z,1000.83
2023-07-23T11:45:59.301Z,1000.84
2023-07-23T11:46:59.250Z,1000.83
2023-07-23T11:47:59.302Z,1000.84
2023-07-23T11:48:59.251Z,1000.92
2023-07-23T11:49:59.227Z,1000.80
2023-07-23T11:50:59.209Z,1000.74
2023-07-23T11:51:59.229Z,1000.77
2023-07-23T11:52:59.194Z,1000.77
2023-07-23T11:53:59.178Z,1000.78
2023-07-23T11:54:59.162Z,1000.82
2023-07-23T11:55:59.194Z,1000.75
2023-07-23T11:56:59.154Z,1000.94
2023-07-23T11:57:59.144Z,1000.83
2023-07-23T11:58:59.123Z,1000.72
2023-07-23T11:59:59.115Z,1000.77
2023-07-23T12:00:59.111Z,1000.85
2023-07-23T12:01:59.195Z,1000.84
2023-07-23T12:02:59.111Z,1000.86
2023-07-23T12:03:59.103Z,1000.85
2023-07-23T12:04:59.050Z,1000.85
2023-07-23T12:05:59.042Z,1000.88
2023-07-23T12:06:59.055Z,1000.81
2023-07-23T12:07:59.021Z,1000.89
2023-07-23T12:08:59.006Z,1000.79